createdAt,value
2018-12-15T00:00:13.830Z,95.20
2018-12-15T00:02:41.681Z,95.50
2018-12-15T00:05:09.498Z,95.40
2018-12-15T00:07:37.329Z,94.80
2018-12-15T00:10:05.752Z,94.40
2018-12-15T00:12:33.439Z,94.80
2018-12-15T00:15:01.619Z,95.00
2018-12-15T00:17:29.385Z,94.50
2018-12-15T00:19:57.140Z,94.90
2018-12-15T00:22:24.947Z,95.30
2018-12-15T00:24:52.710Z,95.50
2018-12-15T00:27:20.451Z,95.90
2018-12-15T00:29:49.294Z,95.80
2018-12-15T00:32:17.152Z,95.80
2018-12-15T00:34:44.934Z,96.00
2018-12-15T00:37:12.699Z,96.30
2018-12-15T00:39:40.769Z,95.90
2018-12-15T00:42:08.658Z,95.50
2018-12-15T00:44:36.354Z,96.60
2018-12-15T00:47:05.141Z,95.90
2018-12-15T00:49:32.980Z,96.10
2018-12-15T00:52:00.717Z,96.50
2018-12-15T00:54:28.490Z,96.10
2018-12-15T00:56:56.207Z,96.50
2018-12-15T00:59:23.942Z,96.60
2018-12-15T01:01:52.007Z,96.60
2018-12-15T01:04:19.792Z,96.60
2018-12-15T01:06:48.665Z,96.40
2018-12-15T01:09:16.432Z,96.60
2018-12-15T01:11:44.188Z,96.80
2018-12-15T01:14:12.796Z,96.90
2018-12-15T01:16:40.670Z,96.90
2018-12-15T01:19:08.332Z,96.80
2018-12-15T01:21:36.122Z,96.40
2018-12-15T01:24:04.144Z,96.90
2018-12-15T01:26:31.934Z,97.00
2018-12-15T01:28:59.730Z,97.20
2018-12-15T01:31:27.523Z,96.70
2018-12-15T01:33:55.334Z,96.70
2018-12-15T01:36:23.176Z,96.60
2018-12-15T01:38:50.908Z,96.40
2018-12-15T01:41:18.683Z,96.30
2018-12-15T01:43:46.451Z,96.40
2018-12-15T01:46:14.245Z,96.60
2018-12-15T01:48:42.088Z,97.50
2018-12-15T01:51:09.917Z,96.80
2018-12-15T01:53:37.645Z,96.70
2018-12-15T01:56:05.404Z,96.60
2018-12-15T01:58:33.118Z,96.90
2018-12-15T02:01:00.924Z,96.70
2018-12-15T02:03:29.428Z,96.70
2018-12-15T02:05:57.989Z,96.70
2018-12-15T02:08:25.801Z,97.30
2018-12-15T02:10:54.407Z,96.80
2018-12-15T02:13:22.172Z,96.80
2018-12-15T02:15:49.981Z,97.00
2018-12-15T02:18:17.766Z,97.20
2018-12-15T02:20:45.483Z,97.10
2018-12-15T02:23:13.170Z,97.10
2018-12-15T02:25:40.914Z,96.80
2018-12-15T02:28:09.483Z,96.70
2018-12-15T02:30:37.231Z,96.70
2018-12-15T02:33:04.977Z,96.70
2018-12-15T02:35:32.921Z,96.30
2018-12-15T02:38:00.683Z,96.50
2018-12-15T02:40:28.966Z,96.20
2018-12-15T02:42:56.688Z,96.10
2018-12-15T02:45:24.590Z,96.10
2018-12-15T02:47:52.461Z,96.20
2018-12-15T02:50:20.325Z,96.60
2018-12-15T02:52:48.783Z,96.30
2018-12-15T02:55:16.573Z,96.30
2018-12-15T02:57:44.430Z,96.50
2018-12-15T03:00:12.273Z,96.90
2018-12-15T03:02:40.000Z,96.50
2018-12-15T03:05:08.597Z,96.70
2018-12-15T03:07:36.376Z,96.70
2018-12-15T03:10:05.873Z,97.00
2018-12-15T03:12:33.587Z,97.10
2018-12-15T03:15:01.329Z,96.80
2018-12-15T03:17:29.693Z,96.70
2018-12-15T03:20:00.484Z,96.60
2018-12-15T03:22:28.480Z,96.70
2018-12-15T03:24:57.131Z,95.90
2018-12-15T03:27:25.393Z,95.80
2018-12-15T03:29:53.251Z,96.40
2018-12-15T03:32:21.089Z,96.60
2018-12-15T03:34:48.904Z,96.20
2018-12-15T03:37:16.791Z,96.60
2018-12-15T03:39:44.620Z,96.70
2018-12-15T03:42:12.451Z,96.70
2018-12-15T03:44:40.193Z,96.30
2018-12-15T03:47:08.071Z,96.40
2018-12-15T03:49:39.131Z,95.80
2018-12-15T03:52:09.764Z,96.10
2018-12-15T03:54:37.554Z,96.00
2018-12-15T03:57:05.301Z,96.30
2018-12-15T03:59:33.356Z,96.80
2018-12-15T04:02:02.205Z,96.90
2018-12-15T04:04:31.797Z,97.00
2018-12-15T04:06:59.580Z,97.00
2018-12-15T04:09:27.381Z,97.00
2018-12-15T04:11:55.551Z,97.10
2018-12-15T04:14:23.244Z,97.20
2018-12-15T04:16:50.981Z,97.40
2018-12-15T04:19:18.698Z,97.50
2018-12-15T04:21:46.494Z,97.30
2018-12-15T04:24:21.519Z,97.00
2018-12-15T04:26:49.334Z,97.40
2018-12-15T04:29:17.085Z,97.40
2018-12-15T04:31:44.880Z,96.70
2018-12-15T04:34:12.610Z,96.90
2018-12-15T04:36:40.915Z,97.40
2018-12-15T04:39:10.147Z,97.40
2018-12-15T04:41:37.827Z,97.50
2018-12-15T04:44:05.883Z,97.30
2018-12-15T04:46:33.574Z,97.50
2018-12-15T04:49:01.306Z,97.60
2018-12-15T04:51:29.042Z,97.70
2018-12-15T04:53:56.749Z,97.80
2018-12-15T04:56:24.798Z,98.30
2018-12-15T04:58:52.492Z,98.20
2018-12-15T05:01:20.261Z,98.20
2018-12-15T05:03:47.998Z,98.30
2018-12-15T05:06:16.790Z,97.90
2018-12-15T05:08:44.526Z,98.10
2018-12-15T05:11:12.919Z,98.60
2018-12-15T05:13:41.591Z,99.20
2018-12-15T05:16:09.317Z,99.40
2018-12-15T05:18:37.009Z,99.30
2018-12-15T05:21:04.682Z,99.60
2018-12-15T05:23:32.472Z,99.70
2018-12-15T05:26:00.187Z,99.50
2018-12-15T05:28:27.981Z,99.60
2018-12-15T05:30:55.770Z,99.40
2018-12-15T05:33:23.484Z,98.80
2018-12-15T05:35:51.335Z,98.70
2018-12-15T05:38:19.010Z,98.90
2018-12-15T05:40:46.787Z,98.90
2018-12-15T05:43:14.501Z,98.50
2018-12-15T05:45:42.259Z,98.10
2018-12-15T05:48:09.927Z,98.30
2018-12-15T05:50:37.701Z,98.30
2018-12-15T05:53:05.509Z,98.40
2018-12-15T05:55:33.247Z,98.40
2018-12-15T05:58:00.987Z,98.20
2018-12-15T06:00:28.617Z,98.90
2018-12-15T06:02:56.929Z,98.70
2018-12-15T06:05:24.722Z,98.60
2018-12-15T06:07:52.609Z,98.70
2018-12-15T06:10:22.102Z,98.90
2018-12-15T06:12:49.789Z,98.80
2018-12-15T06:15:17.537Z,98.80
2018-12-15T06:17:45.245Z,98.50
2018-12-15T06:20:13.006Z,98.80
2018-12-15T06:22:41.504Z,99.00
2018-12-15T06:25:09.314Z,98.80
2018-12-15T06:27:37.099Z,98.70
2018-12-15T06:30:06.760Z,99.10
2018-12-15T06:32:34.549Z,98.90
2018-12-15T06:35:02.850Z,98.90
2018-12-15T06:37:30.529Z,98.90
2018-12-15T06:39:59.090Z,98.70
2018-12-15T06:42:26.745Z,98.70
2018-12-15T06:44:54.518Z,99.20
2018-12-15T06:47:22.247Z,99.30
2018-12-15T06:49:50.090Z,99.50
2018-12-15T06:52:17.817Z,99.70
2018-12-15T06:54:46.457Z,99.60
2018-12-15T06:57:14.261Z,99.30
2018-12-15T06:59:42.090Z,99.20
2018-12-15T07:02:09.886Z,99.30
2018-12-15T07:04:37.662Z,99.70
2018-12-15T07:07:05.367Z,99.40
2018-12-15T07:09:33.097Z,99.00
2018-12-15T07:12:00.887Z,99.50
2018-12-15T07:14:28.618Z,99.60
2018-12-15T07:16:56.364Z,99.30
2018-12-15T07:19:24.130Z,98.40
2018-12-15T07:21:51.889Z,98.40
2018-12-15T07:24:19.575Z,98.50
2018-12-15T07:26:47.304Z,98.50
2018-12-15T07:29:15.097Z,98.40
2018-12-15T07:31:42.843Z,98.70
2018-12-15T07:34:10.550Z,98.50
2018-12-15T07:36:38.330Z,98.90
2018-12-15T07:39:08.302Z,98.90
2018-12-15T07:41:36.142Z,99.00
2018-12-15T07:44:03.920Z,99.20
2018-12-15T07:46:32.128Z,99.20
2018-12-15T07:48:59.896Z,99.30
2018-12-15T07:51:27.755Z,99.50
2018-12-15T07:53:55.516Z,99.70
2018-12-15T07:56:25.437Z,99.60
2018-12-15T07:58:53.217Z,99.70
2018-12-15T08:01:21.825Z,99.90
2018-12-15T08:03:49.578Z,99.40
2018-12-15T08:06:17.596Z,99.70
2018-12-15T08:08:45.298Z,99.10
2018-12-15T08:11:18.648Z,99.50
2018-12-15T08:13:47.757Z,99.70
2018-12-15T08:16:15.540Z,99.60
2018-12-15T08:18:43.421Z,99.70
2018-12-15T08:21:11.169Z,99.90
2018-12-15T08:23:38.838Z,99.90
2018-12-15T08:26:07.458Z,99.90
2018-12-15T08:28:35.194Z,99.90
2018-12-15T08:31:03.553Z,99.60
2018-12-15T08:33:31.227Z,99.90
2018-12-15T08:35:59.050Z,99.90
2018-12-15T08:38:26.808Z,99.80
2018-12-15T08:40:54.543Z,99.00
2018-12-15T08:43:22.304Z,98.00
2018-12-15T08:45:50.199Z,98.30
2018-12-15T08:48:17.966Z,97.80
2018-12-15T08:50:45.981Z,97.90
2018-12-15T08:53:13.722Z,97.80
2018-12-15T08:55:41.498Z,98.00
2018-12-15T08:58:10.008Z,97.40
2018-12-15T09:00:38.026Z,98.20
2018-12-15T09:03:06.654Z,97.70
2018-12-15T09:05:34.398Z,97.50
2018-12-15T09:08:02.353Z,97.70
2018-12-15T09:10:30.053Z,97.70
2018-12-15T09:12:57.860Z,97.40
2018-12-15T09:15:25.630Z,97.00
2018-12-15T09:17:54.181Z,97.10
2018-12-15T09:20:21.929Z,97.10
2018-12-15T09:22:49.751Z,97.30
2018-12-15T09:25:17.545Z,97.10
2018-12-15T09:27:45.277Z,96.90
2018-12-15T09:30:13.028Z,97.00
2018-12-15T09:32:40.762Z,97.00
2018-12-15T09:35:08.474Z,97.30
2018-12-15T09:37:36.285Z,97.40
2018-12-15T09:40:05.611Z,97.30
2018-12-15T09:42:33.395Z,97.20
2018-12-15T09:45:01.774Z,96.80
2018-12-15T09:47:29.512Z,96.80
2018-12-15T09:49:58.664Z,96.90
2018-12-15T09:52:27.471Z,96.00
2018-12-15T09:54:55.327Z,96.40
2018-12-15T09:57:23.080Z,96.60
2018-12-15T09:59:50.891Z,96.20
2018-12-15T10:02:18.843Z,96.50
2018-12-15T10:04:46.596Z,96.40
2018-12-15T10:07:14.350Z,96.60
2018-12-15T10:09:42.178Z,96.50
2018-12-15T10:12:09.897Z,96.80
2018-12-15T10:14:37.661Z,96.80
2018-12-15T10:17:05.832Z,96.90
2018-12-15T10:19:34.403Z,96.20
2018-12-15T10:22:02.201Z,96.30
2018-12-15T10:24:29.954Z,96.40
2018-12-15T10:26:57.800Z,96.70
2018-12-15T10:29:31.247Z,96.60
2018-12-15T10:35:01.605Z,96.30
2018-12-15T10:37:30.068Z,96.70
2018-12-15T10:39:58.581Z,96.60
2018-12-15T10:42:26.379Z,96.40
2018-12-15T10:44:54.203Z,96.20
2018-12-15T10:47:22.856Z,95.90
2018-12-15T10:49:50.688Z,96.00
2018-12-15T10:52:18.471Z,96.10
2018-12-15T10:54:46.317Z,96.10
2018-12-15T10:57:14.196Z,96.10
2018-12-15T10:59:41.914Z,96.30
2018-12-15T11:02:10.060Z,96.10
2018-12-15T11:04:38.072Z,96.40
2018-12-15T11:07:05.797Z,96.60
2018-12-15T11:09:37.428Z,96.50
2018-12-15T11:12:05.242Z,96.70
2018-12-15T11:14:33.112Z,96.00
2018-12-15T11:17:00.869Z,96.00
2018-12-15T11:19:36.925Z,96.20
2018-12-15T11:22:00.375Z,96.20
2018-12-15T11:24:28.269Z,96.60
2018-12-15T11:26:57.669Z,96.00
2018-12-15T11:29:25.461Z,96.10
2018-12-15T11:31:53.947Z,96.10
2018-12-15T11:34:21.704Z,96.30
2018-12-15T11:36:49.534Z,96.40
2018-12-15T11:39:17.294Z,96.20
2018-12-15T11:41:46.958Z,96.60
2018-12-15T11:44:14.689Z,96.80
2018-12-15T11:46:42.459Z,96.40
2018-12-15T11:49:10.190Z,96.10
2018-12-15T11:51:41.622Z,96.50
2018-12-15T11:54:09.485Z,96.70
2018-12-15T11:56:38.110Z,96.70
2018-12-15T11:59:05.851Z,96.50
2018-12-15T12:01:33.692Z,96.20
2018-12-15T12:04:01.632Z,96.40
2018-12-15T12:06:29.401Z,96.70
2018-12-15T12:08:57.187Z,96.10
2018-12-15T12:11:24.882Z,96.00
2018-12-15T12:13:52.652Z,95.90
2018-12-15T12:16:20.358Z,96.20
2018-12-15T12:18:48.103Z,95.80
2018-12-15T12:21:16.070Z,95.90
2018-12-15T12:23:43.786Z,95.60
2018-12-15T12:26:11.903Z,95.90
2018-12-15T12:28:39.652Z,96.20
2018-12-15T12:31:07.529Z,95.90
2018-12-15T12:33:35.381Z,95.80
2018-12-15T12:36:03.163Z,96.00
2018-12-15T12:38:30.999Z,96.20
2018-12-15T12:40:58.661Z,96.00
2018-12-15T12:43:26.396Z,96.00
2018-12-15T12:45:54.170Z,95.80
2018-12-15T12:48:23.577Z,96.10
2018-12-15T12:50:51.322Z,96.00
2018-12-15T12:53:19.118Z,96.30
2018-12-15T12:55:46.857Z,96.00
2018-12-15T12:58:14.721Z,96.10
2018-12-15T13:00:42.544Z,96.10
2018-12-15T13:03:10.416Z,96.60
2018-12-15T13:05:38.224Z,96.20
2018-12-15T13:08:06.690Z,96.10
2018-12-15T13:10:35.653Z,96.10
2018-12-15T13:13:04.060Z,95.90
2018-12-15T13:15:31.822Z,96.00
2018-12-15T13:17:59.565Z,95.80
2018-12-15T13:20:27.338Z,95.80
2018-12-15T13:22:55.179Z,95.60
2018-12-15T13:25:22.957Z,95.80
2018-12-15T13:27:50.743Z,95.80
2018-12-15T13:30:19.781Z,96.00
2018-12-15T13:32:47.532Z,96.20
2018-12-15T13:35:15.262Z,96.10
2018-12-15T13:37:43.015Z,95.70
2018-12-15T13:40:10.818Z,96.00
2018-12-15T13:42:38.671Z,96.20
2018-12-15T13:45:06.695Z,96.00
2018-12-15T13:47:34.529Z,95.70
2018-12-15T13:50:02.391Z,95.70
2018-12-15T13:52:30.209Z,95.70
2018-12-15T13:54:57.903Z,95.50
2018-12-15T13:57:26.578Z,95.40
2018-12-15T13:59:54.342Z,95.80
2018-12-15T14:02:22.208Z,95.60
2018-12-15T14:04:49.986Z,95.80
2018-12-15T14:07:17.744Z,96.10
2018-12-15T14:09:45.419Z,95.70
2018-12-15T14:12:13.243Z,95.70
2018-12-15T14:14:41.076Z,95.50
2018-12-15T14:17:08.781Z,95.30
2018-12-15T14:19:36.608Z,95.30
2018-12-15T14:22:05.095Z,95.50
2018-12-15T14:24:32.836Z,95.60
2018-12-15T14:27:00.606Z,95.70
2018-12-15T14:29:28.350Z,95.80
2018-12-15T14:31:56.076Z,95.40
2018-12-15T14:34:23.819Z,95.70
2018-12-15T14:36:51.499Z,95.70
2018-12-15T14:39:19.259Z,95.30
2018-12-15T14:41:47.074Z,95.60
2018-12-15T14:44:15.034Z,95.20
2018-12-15T14:46:42.775Z,95.40
2018-12-15T14:49:10.541Z,95.60
2018-12-15T14:51:38.285Z,95.20
2018-12-15T14:54:06.839Z,95.00
2018-12-15T14:56:34.606Z,95.10
2018-12-15T14:59:02.396Z,95.10
2018-12-15T15:01:30.279Z,95.90
2018-12-15T15:03:58.109Z,95.50
2018-12-15T15:06:25.973Z,94.70
2018-12-15T15:08:53.872Z,94.30
2018-12-15T15:11:22.458Z,94.60
2018-12-15T15:13:50.307Z,94.70
2018-12-15T15:16:18.873Z,94.60
2018-12-15T15:18:46.582Z,94.70
2018-12-15T15:21:14.418Z,95.20
2018-12-15T15:23:42.255Z,94.50
2018-12-15T15:26:10.095Z,94.90
2018-12-15T15:28:37.814Z,94.60
2018-12-15T15:31:05.566Z,94.50
2018-12-15T15:33:34.017Z,94.80
2018-12-15T15:36:01.719Z,94.70
2018-12-15T15:38:29.501Z,95.10
2018-12-15T15:40:57.261Z,95.00
2018-12-15T15:43:25.089Z,94.90
2018-12-15T15:45:53.703Z,94.60
2018-12-15T15:48:22.255Z,94.70
2018-12-15T15:50:50.030Z,94.60
2018-12-15T15:53:18.076Z,94.60
2018-12-15T15:55:46.978Z,94.60
2018-12-15T15:58:14.849Z,94.70
2018-12-15T16:00:43.635Z,94.50
2018-12-15T16:03:11.451Z,94.70
2018-12-15T16:05:39.198Z,94.80
2018-12-15T16:08:07.017Z,94.80
2018-12-15T16:10:35.862Z,94.40
2018-12-15T16:13:03.795Z,94.60
2018-12-15T16:15:32.378Z,94.50
2018-12-15T16:18:00.148Z,94.50
2018-12-15T16:20:27.850Z,94.50
2018-12-15T16:22:55.831Z,94.30
2018-12-15T16:25:23.595Z,94.80
2018-12-15T16:27:51.375Z,94.60
2018-12-15T16:30:19.187Z,94.60
2018-12-15T16:32:46.958Z,94.60
2018-12-15T16:35:14.806Z,94.70
2018-12-15T16:37:42.697Z,94.80
2018-12-15T16:40:10.460Z,94.80
2018-12-15T16:42:38.300Z,94.50
2018-12-15T16:45:07.684Z,94.30
2018-12-15T16:47:35.516Z,94.10
2018-12-15T16:50:06.103Z,94.20
2018-12-15T16:52:33.961Z,94.20
2018-12-15T16:55:02.499Z,94.60
2018-12-15T16:57:30.250Z,94.40
2018-12-15T16:59:58.012Z,94.30
2018-12-15T17:02:25.717Z,94.20
2018-12-15T17:04:55.177Z,94.40
2018-12-15T17:07:22.889Z,94.30
2018-12-15T17:09:50.724Z,94.00
2018-12-15T17:12:18.433Z,94.00
2018-12-15T17:14:46.122Z,94.00
2018-12-15T17:17:13.913Z,94.00
2018-12-15T17:19:41.670Z,94.20
2018-12-15T17:22:10.344Z,94.30
2018-12-15T17:24:38.041Z,94.20
2018-12-15T17:27:05.818Z,94.50
2018-12-15T17:29:33.612Z,94.30
2018-12-15T17:32:01.362Z,94.20
2018-12-15T17:34:29.146Z,94.60
2018-12-15T17:36:56.928Z,94.60
2018-12-15T17:39:24.789Z,94.90
2018-12-15T17:41:53.802Z,95.10
2018-12-15T17:44:21.524Z,95.00
2018-12-15T17:46:49.282Z,94.90
2018-12-15T17:49:17.088Z,95.00
2018-12-15T17:51:44.894Z,94.80
2018-12-15T17:54:12.617Z,94.70
2018-12-15T17:56:40.367Z,94.70
2018-12-15T17:59:08.094Z,94.70
2018-12-15T18:01:40.616Z,94.70
2018-12-15T18:04:08.346Z,94.70
2018-12-15T18:06:36.169Z,94.80
2018-12-15T18:09:06.421Z,94.70
2018-12-15T18:11:34.293Z,95.00
2018-12-15T18:14:02.068Z,94.80
2018-12-15T18:16:31.022Z,94.90
2018-12-15T18:18:58.977Z,94.80
2018-12-15T18:21:26.796Z,95.00
2018-12-15T18:23:55.523Z,95.00
2018-12-15T18:26:23.314Z,94.80
2018-12-15T18:28:52.093Z,95.10
2018-12-15T18:31:19.863Z,95.00
2018-12-15T18:33:47.602Z,95.00
2018-12-15T18:36:15.345Z,95.20
2018-12-15T18:38:43.141Z,94.90
2018-12-15T18:41:10.951Z,95.30
2018-12-15T18:43:38.634Z,95.10
2018-12-15T18:46:06.419Z,95.00
2018-12-15T18:48:34.137Z,95.20
2018-12-15T18:51:02.868Z,95.60
2018-12-15T18:53:30.588Z,95.50
2018-12-15T18:55:59.217Z,95.80
2018-12-15T18:58:28.107Z,95.60
2018-12-15T19:00:55.841Z,95.40
2018-12-15T19:03:23.737Z,95.50
2018-12-15T19:05:52.487Z,95.70
2018-12-15T19:08:20.868Z,95.80
2018-12-15T19:10:48.665Z,95.80
2018-12-15T19:13:16.399Z,96.00
2018-12-15T19:15:44.102Z,96.30
2018-12-15T19:18:11.843Z,96.10
2018-12-15T19:20:40.501Z,96.40
2018-12-15T19:23:08.265Z,96.10
2018-12-15T19:25:35.990Z,96.00
2018-12-15T19:28:03.900Z,96.00
2018-12-15T19:30:31.624Z,96.40
2018-12-15T19:32:59.416Z,96.30
2018-12-15T19:35:27.777Z,96.00
2018-12-15T19:37:55.616Z,95.60
2018-12-15T19:40:23.410Z,95.80
2018-12-15T19:42:51.142Z,95.70
2018-12-15T19:45:18.982Z,95.60
2018-12-15T19:47:46.666Z,95.70
2018-12-15T19:50:14.469Z,95.40
2018-12-15T19:52:42.266Z,95.50
2018-12-15T19:55:10.021Z,95.40
2018-12-15T19:57:37.848Z,95.80
2018-12-15T20:00:07.332Z,95.70
2018-12-15T20:02:35.224Z,95.80
2018-12-15T20:05:03.112Z,96.00
2018-12-15T20:07:30.887Z,95.80
2018-12-15T20:09:58.701Z,96.10
2018-12-15T20:12:26.429Z,96.40
2018-12-15T20:14:54.229Z,96.40
2018-12-15T20:17:22.081Z,96.20
2018-12-15T20:19:49.904Z,96.40
2018-12-15T20:22:17.666Z,96.20
2018-12-15T20:24:45.359Z,96.00
2018-12-15T20:27:13.172Z,96.20
2018-12-15T20:29:42.171Z,96.20
2018-12-15T20:32:09.906Z,96.70
2018-12-15T20:34:38.622Z,96.60
2018-12-15T20:37:06.398Z,96.50
2018-12-15T20:39:34.187Z,96.40
2018-12-15T20:42:02.015Z,96.50
2018-12-15T20:44:29.755Z,96.60
2018-12-15T20:46:57.532Z,96.70
2018-12-15T20:49:25.313Z,96.90
2018-12-15T20:51:53.035Z,96.70
2018-12-15T20:54:20.838Z,96.70
2018-12-15T20:56:48.585Z,96.60
2018-12-15T20:59:16.319Z,96.70
2018-12-15T21:01:44.183Z,96.60
2018-12-15T21:04:11.892Z,96.50
2018-12-15T21:06:39.674Z,96.50
2018-12-15T21:09:07.457Z,96.80
2018-12-15T21:11:35.984Z,97.20
2018-12-15T21:14:03.810Z,97.40
2018-12-15T21:16:31.563Z,97.40
2018-12-15T21:18:59.390Z,97.40
2018-12-15T21:21:27.107Z,97.60
2018-12-15T21:23:54.918Z,97.70
2018-12-15T21:26:23.040Z,97.60
2018-12-15T21:28:50.929Z,97.50
2018-12-15T21:31:19.447Z,97.30
2018-12-15T21:33:47.248Z,97.30
2018-12-15T21:36:15.019Z,97.40
2018-12-15T21:38:42.823Z,97.30
2018-12-15T21:41:10.668Z,97.50
2018-12-15T21:43:38.448Z,97.90
2018-12-15T21:46:06.846Z,97.50
2018-12-15T21:48:34.682Z,97.80
2018-12-15T21:51:02.448Z,98.00
2018-12-15T21:53:30.150Z,98.00
2018-12-15T21:55:57.873Z,97.90
2018-12-15T21:58:25.704Z,97.90
2018-12-15T22:03:27.461Z,97.80
2018-12-15T22:05:55.203Z,97.80
2018-12-15T22:08:22.963Z,97.80
2018-12-15T22:10:50.671Z,97.90
2018-12-15T22:13:18.487Z,98.20
2018-12-15T22:15:46.195Z,98.10
2018-12-15T22:18:13.972Z,98.10
2018-12-15T22:20:41.838Z,98.40
2018-12-15T22:23:09.754Z,98.40
2018-12-15T22:25:38.288Z,98.30
2018-12-15T22:28:06.075Z,98.30
2018-12-15T22:30:33.832Z,98.30
2018-12-15T22:33:01.601Z,98.20
2018-12-15T22:35:29.321Z,98.30
2018-12-15T22:37:57.105Z,98.40
2018-12-15T22:40:25.649Z,98.60
2018-12-15T22:42:54.352Z,98.40
2018-12-15T22:45:22.196Z,98.30
2018-12-15T22:47:50.012Z,98.40
2018-12-15T22:50:17.769Z,98.70
2018-12-15T22:52:45.631Z,98.80
2018-12-15T22:55:13.981Z,98.90
2018-12-15T22:57:41.675Z,98.80
2018-12-15T23:00:10.297Z,98.80
2018-12-15T23:02:38.050Z,98.90
2018-12-15T23:05:06.329Z,99.10
2018-12-15T23:07:34.103Z,98.80
2018-12-15T23:10:02.679Z,98.70
2018-12-15T23:12:30.496Z,98.70
2018-12-15T23:14:58.280Z,98.70
2018-12-15T23:17:26.089Z,98.70
2018-12-15T23:19:54.672Z,98.60
2018-12-15T23:22:22.416Z,98.70
2018-12-15T23:24:50.217Z,98.90
2018-12-15T23:27:17.871Z,99.00
2018-12-15T23:29:45.721Z,98.80
2018-12-15T23:32:14.314Z,98.90
2018-12-15T23:34:42.118Z,99.10
2018-12-15T23:37:10.869Z,98.70
2018-12-15T23:39:38.612Z,98.90
2018-12-15T23:42:06.365Z,98.90
2018-12-15T23:44:35.059Z,98.80
2018-12-15T23:47:02.719Z,98.90
2018-12-15T23:49:31.665Z,99.00
2018-12-15T23:52:00.388Z,99.20
2018-12-15T23:54:28.195Z,99.30
2018-12-15T23:56:55.996Z,99.00
2018-12-15T23:59:24.475Z,98.80
